Vremea mâine în Tărnăveni - Romania

Vrei sa afli care e starea vremii acum in Mures - Romania? Dorim sa iti furnizam starea vremii pentru Mures - Romania. Starea vremii Mures - Romania pentru astazi.

Vremea mâine în Tărnăveni

Temperatura minimă:
7 °C

Temperatura maximă:
22.1 °C

Mâine va fi: Senin
Precipitații: 0 %
Umiditate: 65%
Viteza maximă vânt mâine:
10.1 km/h

Evoluția vremii in Tărnăveni pe ore mâine

Ora: 04:00
Temperatura: °C
Sansa de precipitatii: %
Ora Descriere Temp Se simte Precipitatii Umiditate Vant
00:00Senin9.6°9.6°0%84%SSW 2.5 KM/H
01:00Senin9.1°9.1°0%85%S 2.2 KM/H
02:00Senin8.6°8.7°0%86%SSE 2.9 KM/H
03:00Senin8.2°8.3°0%86%SSE 3.6 KM/H
04:00Senin7.8°7.8°0%87%SE 3.6 KM/H
05:00Senin7.3°7.3°0%88%SE 3.6 KM/H
06:00Senin6.8°0%88%SE 4 KM/H
07:00Senin7.8°7.7°0%88%SE 4 KM/H
08:00Senin11.8°12.1°0%82%ESE 4 KM/H
09:00Senin14.2°14.6°0%76%ESE 4.3 KM/H
10:00Senin16.1°16.2°0%70%ESE 6.1 KM/H
11:00Senin18°18°0%62%ESE 7.2 KM/H
12:00Senin19.6°19.6°0%50%ESE 7.9 KM/H
13:00Senin20.7°20.7°0%43%ESE 9.7 KM/H
14:00Senin21.4°21.4°0%39%ESE 10.1 KM/H
15:00Senin21.9°21.9°0%37%ESE 9.7 KM/H
16:00Senin22.1°23.8°0%36%ESE 9.4 KM/H
17:00Senin22.1°23.8°0%37%ESE 8.6 KM/H
18:00Senin21.9°21.9°0%42%SE 8.3 KM/H
19:00Senin19.8°19.8°0%54%SSE 6.8 KM/H
20:00Senin15.1°15.1°0%56%SSE 5.4 KM/H
21:00Senin12.9°12.9°0%55%SE 5.4 KM/H
22:00Senin11.8°11.5°0%58%SE 6.1 KM/H
23:00Senin10.8°10.3°0%64%SSE 6.5 KM/H




tutorials